sensor_id;sensor_type;location;lat;lon;timestamp;pressure;altitude;pressure_sealevel;temperature;humidity
18569;BME280;14780;48.316;-1.050;2023-02-10T00:02:36;101130.59;;;23.73;32.80
18569;BME280;14780;48.316;-1.050;2023-02-10T00:05:21;101133.13;;;23.75;32.77
18569;BME280;14780;48.316;-1.050;2023-02-10T00:08:05;101128.72;;;23.74;32.81
18569;BME280;14780;48.316;-1.050;2023-02-10T00:10:50;101131.88;;;23.71;32.72
18569;BME280;14780;48.316;-1.050;2023-02-10T00:13:35;101130.41;;;23.68;32.74
18569;BME280;14780;48.316;-1.050;2023-02-10T00:16:20;101128.53;;;23.69;32.67
18569;BME280;14780;48.316;-1.050;2023-02-10T00:19:05;101124.94;;;23.68;32.69
18569;BME280;14780;48.316;-1.050;2023-02-10T00:21:50;101135.88;;;23.68;32.78
18569;BME280;14780;48.316;-1.050;2023-02-10T00:24:35;101126.84;;;23.68;32.71
18569;BME280;14780;48.316;-1.050;2023-02-10T00:27:20;101130.66;;;23.67;32.65
18569;BME280;14780;48.316;-1.050;2023-02-10T00:30:08;101121.59;;;23.66;32.63
18569;BME280;14780;48.316;-1.050;2023-02-10T00:32:53;101131.09;;;23.64;32.57
18569;BME280;14780;48.316;-1.050;2023-02-10T00:35:38;101133.59;;;23.65;32.59
18569;BME280;14780;48.316;-1.050;2023-02-10T00:38:22;101123.72;;;23.64;32.66
18569;BME280;14780;48.316;-1.050;2023-02-10T00:41:18;101122.88;;;23.64;32.60
18569;BME280;14780;48.316;-1.050;2023-02-10T00:44:03;101117.88;;;23.61;32.63
18569;BME280;14780;48.316;-1.050;2023-02-10T00:46:48;101115.34;;;23.59;32.58
18569;BME280;14780;48.316;-1.050;2023-02-10T00:49:32;101114.50;;;23.59;32.48
18569;BME280;14780;48.316;-1.050;2023-02-10T00:52:17;101113.69;;;23.58;32.46
18569;BME280;14780;48.316;-1.050;2023-02-10T00:55:02;101123.75;;;23.58;32.44
18569;BME280;14780;48.316;-1.050;2023-02-10T00:57:47;101125.03;;;23.55;32.43
18569;BME280;14780;48.316;-1.050;2023-02-10T01:00:31;101108.88;;;23.54;32.37
18569;BME280;14780;48.316;-1.050;2023-02-10T01:03:16;101110.78;;;23.53;32.37
18569;BME280;14780;48.316;-1.050;2023-02-10T01:06:02;101114.56;;;23.52;32.34
18569;BME280;14780;48.316;-1.050;2023-02-10T01:08:47;101115.03;;;23.49;32.33
18569;BME280;14780;48.316;-1.050;2023-02-10T01:11:31;101115.03;;;23.49;32.27
18569;BME280;14780;48.316;-1.050;2023-02-10T01:14:16;101104.09;;;23.49;32.38
18569;BME280;14780;48.316;-1.050;2023-02-10T01:17:01;101097.16;;;23.47;32.28
18569;BME280;14780;48.316;-1.050;2023-02-10T01:19:46;101103.69;;;23.46;32.27
18569;BME280;14780;48.316;-1.050;2023-02-10T01:22:33;101099.72;;;23.42;32.30
18569;BME280;14780;48.316;-1.050;2023-02-10T01:25:18;101104.97;;;23.43;32.23
18569;BME280;14780;48.316;-1.050;2023-02-10T01:28:04;101107.53;;;23.38;32.31
18569;BME280;14780;48.316;-1.050;2023-02-10T01:30:49;101100.78;;;23.41;32.32
18569;BME280;14780;48.316;-1.050;2023-02-10T01:33:33;101098.25;;;23.39;32.27
18569;BME280;14780;48.316;-1.050;2023-02-10T01:36:20;101092.78;;;23.39;32.28
18569;BME280;14780;48.316;-1.050;2023-02-10T01:39:05;101088.41;;;23.38;32.26
18569;BME280;14780;48.316;-1.050;2023-02-10T01:41:50;101085.06;;;23.37;32.27
18569;BME280;14780;48.316;-1.050;2023-02-10T01:47:19;101087.41;;;23.33;32.24
18569;BME280;14780;48.316;-1.050;2023-02-10T01:50:07;101097.47;;;23.33;32.24
18569;BME280;14780;48.316;-1.050;2023-02-10T01:52:52;101090.94;;;23.33;32.23
18569;BME280;14780;48.316;-1.050;2023-02-10T01:55:39;101078.13;;;23.34;32.24
18569;BME280;14780;48.316;-1.050;2023-02-10T01:58:27;101084.66;;;23.33;32.28
18569;BME280;14780;48.316;-1.050;2023-02-10T02:01:14;101090.13;;;23.33;32.31
18569;BME280;14780;48.316;-1.050;2023-02-10T02:04:00;101077.28;;;23.33;32.33
18569;BME280;14780;48.316;-1.050;2023-02-10T02:06:46;101074.34;;;23.35;32.33
18569;BME280;14780;48.316;-1.050;2023-02-10T02:09:31;101087.19;;;23.35;32.38
18569;BME280;14780;48.316;-1.050;2023-02-10T02:15:43;101080.66;;;23.36;32.34
18569;BME280;14780;48.316;-1.050;2023-02-10T02:21:32;101084.44;;;23.35;32.38
18569;BME280;14780;48.316;-1.050;2023-02-10T02:30:21;101074.56;;;23.33;32.36
18569;BME280;14780;48.316;-1.050;2023-02-10T02:33:43;101077.28;;;23.33;32.37
18569;BME280;14780;48.316;-1.050;2023-02-10T02:36:41;101074.56;;;23.33;32.37
18569;BME280;14780;48.316;-1.050;2023-02-10T02:39:27;101085.72;;;23.32;32.41
18569;BME280;14780;48.316;-1.050;2023-02-10T02:42:24;101084.66;;;23.33;32.43
18569;BME280;14780;48.316;-1.050;2023-02-10T02:45:12;101089.28;;;23.33;32.40
18569;BME280;14780;48.316;-1.050;2023-02-10T02:51:48;101086.13;;;23.36;32.37
18569;BME280;14780;48.316;-1.050;2023-02-10T02:54:27;101075.19;;;23.36;32.42
18569;BME280;14780;48.316;-1.050;2023-02-10T02:57:39;101078.13;;;23.34;32.32
18569;BME280;14780;48.316;-1.050;2023-02-10T03:00:29;101068.28;;;23.33;32.38
18569;BME280;14780;48.316;-1.050;2023-02-10T03:03:15;101079.00;;;23.35;32.44
18569;BME280;14780;48.316;-1.050;2023-02-10T03:06:01;101071.63;;;23.35;32.34
18569;BME280;14780;48.316;-1.050;2023-02-10T03:08:47;101076.00;;;23.36;32.39
18569;BME280;14780;48.316;-1.050;2023-02-10T03:11:31;101083.38;;;23.36;32.33
18569;BME280;14780;48.316;-1.050;2023-02-10T03:14:16;101082.53;;;23.35;32.37
18569;BME280;14780;48.316;-1.050;2023-02-10T03:17:01;101079.59;;;23.37;32.42
18569;BME280;14780;48.316;-1.050;2023-02-10T03:19:45;101071.63;;;23.35;32.42
18569;BME280;14780;48.316;-1.050;2023-02-10T03:22:30;101072.47;;;23.36;32.38
18569;BME280;14780;48.316;-1.050;2023-02-10T03:25:14;101074.13;;;23.37;32.33
18569;BME280;14780;48.316;-1.050;2023-02-10T03:27:59;101072.69;;;23.34;32.34
18569;BME280;14780;48.316;-1.050;2023-02-10T03:30:44;101079.00;;;23.35;32.36
18569;BME280;14780;48.316;-1.050;2023-02-10T03:33:31;101071.41;;;23.37;32.38
18569;BME280;14780;48.316;-1.050;2023-02-10T03:36:16;101068.88;;;23.35;32.34
18569;BME280;14780;48.316;-1.050;2023-02-10T03:39:02;101070.78;;;23.35;32.27
18569;BME280;14780;48.316;-1.050;2023-02-10T03:41:48;101073.53;;;23.35;32.39
18569;BME280;14780;48.316;-1.050;2023-02-10T03:44:32;101068.06;;;23.35;32.28
18569;BME280;14780;48.316;-1.050;2023-02-10T03:47:17;101072.47;;;23.36;32.34
18569;BME280;14780;48.316;-1.050;2023-02-10T03:50:02;101064.28;;;23.36;32.37
18569;BME280;14780;48.316;-1.050;2023-02-10T03:52:46;101066.59;;;23.32;32.35
18569;BME280;14780;48.316;-1.050;2023-02-10T03:55:31;101067.22;;;23.34;32.35
18569;BME280;14780;48.316;-1.050;2023-02-10T03:58:16;101066.34;;;23.33;32.34
18569;BME280;14780;48.316;-1.050;2023-02-10T04:01:09;101063.88;;;23.32;32.36
18569;BME280;14780;48.316;-1.050;2023-02-10T04:03:54;101064.09;;;23.31;32.36
18569;BME280;14780;48.316;-1.050;2023-02-10T04:06:38;101066.59;;;23.32;32.36
18569;BME280;14780;48.316;-1.050;2023-02-10T04:09:24;101070.16;;;23.33;32.33
18569;BME280;14780;48.316;-1.050;2023-02-10T04:12:09;101070.16;;;23.33;32.28
18569;BME280;14780;48.316;-1.050;2023-02-10T04:14:53;101065.75;;;23.32;32.28
18569;BME280;14780;48.316;-1.050;2023-02-10T04:17:38;101073.13;;;23.31;32.31
18569;BME280;14780;48.316;-1.050;2023-02-10T04:20:24;101073.13;;;23.31;32.35
18569;BME280;14780;48.316;-1.050;2023-02-10T04:23:09;101072.28;;;23.31;32.41
18569;BME280;14780;48.316;-1.050;2023-02-10T04:25:54;101066.81;;;23.31;32.33
18569;BME280;14780;48.316;-1.050;2023-02-10T04:28:39;101069.75;;;23.29;32.30
18569;BME280;14780;48.316;-1.050;2023-02-10T04:31:23;101070.63;;;23.30;32.27
18569;BME280;14780;48.316;-1.050;2023-02-10T04:34:08;101081.75;;;23.28;32.33
18569;BME280;14780;48.316;-1.050;2023-02-10T04:36:53;101080.06;;;23.27;32.32
18569;BME280;14780;48.316;-1.050;2023-02-10T04:39:37;101080.28;;;23.26;32.36
18569;BME280;14780;48.316;-1.050;2023-02-10T04:42:22;101083.66;;;23.28;32.36
18569;BME280;14780;48.316;-1.050;2023-02-10T04:45:14;101086.59;;;23.26;32.30
18569;BME280;14780;48.316;-1.050;2023-02-10T04:47:59;101094.59;;;23.28;32.23
18569;BME280;14780;48.316;-1.050;2023-02-10T04:50:44;101091.00;;;23.27;32.29
18569;BME280;14780;48.316;-1.050;2023-02-10T04:53:28;101101.06;;;23.27;32.38
18569;BME280;14780;48.316;-1.050;2023-02-10T04:56:14;101098.34;;;23.27;32.38
18569;BME280;14780;48.316;-1.050;2023-02-10T04:58:59;101099.19;;;23.27;32.39
18569;BME280;14780;48.316;-1.050;2023-02-10T05:01:44;101099.19;;;23.27;32.26
18569;BME280;14780;48.316;-1.050;2023-02-10T05:04:28;101095.00;;;23.25;32.28
18569;BME280;14780;48.316;-1.050;2023-02-10T05:07:13;101095.88;;;23.25;32.37
18569;BME280;14780;48.316;-1.050;2023-02-10T05:09:57;101103.41;;;23.23;32.35
18569;BME280;14780;48.316;-1.050;2023-02-10T05:12:42;101109.13;;;23.22;32.46
18569;BME280;14780;48.316;-1.050;2023-02-10T05:15:26;101109.72;;;23.24;32.39
18569;BME280;14780;48.316;-1.050;2023-02-10T05:18:11;101111.59;;;23.23;32.35
18569;BME280;14780;48.316;-1.050;2023-02-10T05:20:56;101113.53;;;23.23;32.36
18569;BME280;14780;48.316;-1.050;2023-02-10T05:23:41;101110.59;;;23.24;32.43
18569;BME280;14780;48.316;-1.050;2023-02-10T05:26:26;101117.31;;;23.22;32.40
18569;BME280;14780;48.316;-1.050;2023-02-10T05:29:11;101118.97;;;23.23;32.32
18569;BME280;14780;48.316;-1.050;2023-02-10T05:31:56;101113.53;;;23.23;32.34
18569;BME280;14780;48.316;-1.050;2023-02-10T05:34:40;101120.88;;;23.22;32.34
18569;BME280;14780;48.316;-1.050;2023-02-10T05:37:25;101116.25;;;23.23;32.39
18569;BME280;14780;48.316;-1.050;2023-02-10T05:40:10;101119.41;;;23.20;32.36
18569;BME280;14780;48.316;-1.050;2023-02-10T05:42:55;101124.66;;;23.21;32.34
18569;BME280;14780;48.316;-1.050;2023-02-10T05:45:39;101118.97;;;23.23;32.41
18569;BME280;14780;48.316;-1.050;2023-02-10T05:48:26;101127.78;;;23.25;32.27
18569;BME280;14780;48.316;-1.050;2023-02-10T05:51:10;101135.38;;;23.23;32.30
18569;BME280;14780;48.316;-1.050;2023-02-10T05:53:56;101129.06;;;23.22;32.33
18569;BME280;14780;48.316;-1.050;2023-02-10T05:56:40;101131.59;;;23.24;32.35
18569;BME280;14780;48.316;-1.050;2023-02-10T05:59:26;101142.50;;;23.24;32.32
18569;BME280;14780;48.316;-1.050;2023-02-10T06:02:11;101148.81;;;23.24;32.29
18569;BME280;14780;48.316;-1.050;2023-02-10T06:04:55;101147.13;;;23.23;32.36
18569;BME280;14780;48.316;-1.050;2023-02-10T06:07:40;101146.28;;;23.23;32.34
18569;BME280;14780;48.316;-1.050;2023-02-10T06:10:24;101148.19;;;23.22;32.26
18569;BME280;14780;48.316;-1.050;2023-02-10T06:13:09;101146.28;;;23.23;32.35
18569;BME280;14780;48.316;-1.050;2023-02-10T06:15:54;101150.09;;;23.22;32.38
18569;BME280;14780;48.316;-1.050;2023-02-10T06:18:38;101146.72;;;23.20;32.27
18569;BME280;14780;48.316;-1.050;2023-02-10T06:21:23;101150.50;;;23.19;32.39
18569;BME280;14780;48.316;-1.050;2023-02-10T06:24:07;101148.41;;;23.21;32.39
18569;BME280;14780;48.316;-1.050;2023-02-10T06:26:54;101166.47;;;23.22;32.28
18569;BME280;14780;48.316;-1.050;2023-02-10T06:29:39;101155.56;;;23.22;32.36
18569;BME280;14780;48.316;-1.050;2023-02-10T06:32:23;101156.38;;;23.22;32.30
18569;BME280;14780;48.316;-1.050;2023-02-10T06:35:09;101153.88;;;23.21;32.29
18569;BME280;14780;48.316;-1.050;2023-02-10T06:37:54;101155.56;;;23.22;32.24
18569;BME280;14780;48.316;-1.050;2023-02-10T06:40:39;101157.63;;;23.20;32.35
18569;BME280;14780;48.316;-1.050;2023-02-10T06:43:23;101154.91;;;23.20;32.32
18569;BME280;14780;48.316;-1.050;2023-02-10T06:46:08;101157.03;;;23.18;32.50
18569;BME280;14780;48.316;-1.050;2023-02-10T06:48:53;101159.75;;;23.18;32.38
18569;BME280;14780;48.316;-1.050;2023-02-10T06:51:38;101153.69;;;23.16;32.37
18569;BME280;14780;48.316;-1.050;2023-02-10T06:54:23;101152.63;;;23.17;32.32
18569;BME280;14780;48.316;-1.050;2023-02-10T06:57:08;101156.41;;;23.16;32.39
18569;BME280;14780;48.316;-1.050;2023-02-10T06:59:52;101153.88;;;23.14;32.47
18569;BME280;14780;48.316;-1.050;2023-02-10T07:02:38;101153.03;;;23.14;32.46
18569;BME280;14780;48.316;-1.050;2023-02-10T07:05:23;101158.31;;;23.15;32.48
18569;BME280;14780;48.316;-1.050;2023-02-10T07:08:08;101156.22;;;23.17;32.36
18569;BME280;14780;48.316;-1.050;2023-02-10T07:10:53;101164.41;;;23.17;32.46
18569;BME280;14780;48.316;-1.050;2023-02-10T07:13:38;101165.22;;;23.18;32.41
18569;BME280;14780;48.316;-1.050;2023-02-10T07:16:22;101165.47;;;23.16;32.51
18569;BME280;14780;48.316;-1.050;2023-02-10T07:19:08;101171.75;;;23.17;32.44
18569;BME280;14780;48.316;-1.050;2023-02-10T07:21:52;101164.16;;;23.19;32.55
18569;BME280;14780;48.316;-1.050;2023-02-10T07:24:37;101169.81;;;23.24;32.61
18569;BME280;14780;48.316;-1.050;2023-02-10T07:27:22;101172.34;;;23.25;32.66
18569;BME280;14780;48.316;-1.050;2023-02-10T07:30:08;101173.81;;;23.28;32.69
18569;BME280;14780;48.316;-1.050;2023-02-10T07:32:53;101170.22;;;23.27;32.70
18569;BME280;14780;48.316;-1.050;2023-02-10T07:35:38;101178.81;;;23.31;32.64
18569;BME280;14780;48.316;-1.050;2023-02-10T07:38:23;101187.41;;;23.34;32.72
18569;BME280;14780;48.316;-1.050;2023-02-10T07:41:08;101186.56;;;23.33;32.69
18569;BME280;14780;48.316;-1.050;2023-02-10T07:43:53;101184.88;;;23.33;32.71
18569;BME280;14780;48.316;-1.050;2023-02-10T07:46:38;101190.34;;;23.33;32.70
18569;BME280;14780;48.316;-1.050;2023-02-10T07:49:22;101197.47;;;23.33;32.65
18569;BME280;14780;48.316;-1.050;2023-02-10T07:52:08;101206.75;;;23.33;32.76
18569;BME280;14780;48.316;-1.050;2023-02-10T07:54:53;101199.19;;;23.35;32.73
18569;BME280;14780;48.316;-1.050;2023-02-10T07:57:38;101211.78;;;23.36;32.70
18569;BME280;14780;48.316;-1.050;2023-02-10T08:00:24;101207.59;;;23.33;32.77
18569;BME280;14780;48.316;-1.050;2023-02-10T08:03:14;101198.34;;;23.34;32.76
18569;BME280;14780;48.316;-1.050;2023-02-10T08:05:58;101212.00;;;23.34;32.79
18569;BME280;14780;48.316;-1.050;2023-02-10T08:08:43;101220.19;;;23.34;32.79
18569;BME280;14780;48.316;-1.050;2023-02-10T08:11:27;101212.22;;;23.33;32.90
18569;BME280;14780;48.316;-1.050;2023-02-10T08:14:12;101217.66;;;23.33;32.90
18569;BME280;14780;48.316;-1.050;2023-02-10T08:16:57;101225.88;;;23.33;32.75
18569;BME280;14780;48.316;-1.050;2023-02-10T08:19:42;101219.78;;;23.31;32.73
18569;BME280;14780;48.316;-1.050;2023-02-10T08:22:27;101220.25;;;23.28;32.75
18569;BME280;14780;48.316;-1.050;2023-02-10T08:25:11;101227.78;;;23.26;32.85
18569;BME280;14780;48.316;-1.050;2023-02-10T08:27:56;101228.03;;;23.24;32.87
18569;BME280;14780;48.316;-1.050;2023-02-10T08:30:40;101230.53;;;23.26;32.95
18569;BME280;14780;48.316;-1.050;2023-02-10T08:33:25;101235.97;;;23.26;32.90
18569;BME280;14780;48.316;-1.050;2023-02-10T08:36:12;101236.63;;;23.28;32.90
18569;BME280;14780;48.316;-1.050;2023-02-10T08:38:57;101235.78;;;23.27;32.86
18569;BME280;14780;48.316;-1.050;2023-02-10T08:41:42;101234.94;;;23.27;32.90
18569;BME280;14780;48.316;-1.050;2023-02-10T08:44:27;101241.03;;;23.29;32.91
18569;BME280;14780;48.316;-1.050;2023-02-10T08:47:12;101242.91;;;23.28;33.01
18569;BME280;14780;48.316;-1.050;2023-02-10T08:49:59;101239.97;;;23.30;33.00
18569;BME280;14780;48.316;-1.050;2023-02-10T08:52:43;101243.53;;;23.30;32.98
18569;BME280;14780;48.316;-1.050;2023-02-10T08:55:28;101244.38;;;23.31;33.04
18569;BME280;14780;48.316;-1.050;2023-02-10T08:58:12;101247.09;;;23.31;32.87
18569;BME280;14780;48.316;-1.050;2023-02-10T09:00:57;101252.56;;;23.31;32.96
18569;BME280;14780;48.316;-1.050;2023-02-10T09:03:42;101254.25;;;23.32;33.00
18569;BME280;14780;48.316;-1.050;2023-02-10T09:06:34;101248.56;;;23.33;32.90
18569;BME280;14780;48.316;-1.050;2023-02-10T09:09:23;101253.81;;;23.35;32.93
18569;BME280;14780;48.316;-1.050;2023-02-10T09:12:11;101252.13;;;23.33;32.94
18569;BME280;14780;48.316;-1.050;2023-02-10T09:14:56;101259.72;;;23.32;32.94
18569;BME280;14780;48.316;-1.050;2023-02-10T09:17:40;101251.31;;;23.33;32.99
18569;BME280;14780;48.316;-1.050;2023-02-10T09:20:25;101254.84;;;23.33;32.94
18569;BME280;14780;48.316;-1.050;2023-02-10T09:23:09;101260.31;;;23.33;32.79
18569;BME280;14780;48.316;-1.050;2023-02-10T09:25:55;101253.81;;;23.35;32.81
18569;BME280;14780;48.316;-1.050;2023-02-10T09:28:40;101242.91;;;23.35;32.87
18569;BME280;14780;48.316;-1.050;2023-02-10T09:31:25;101254.84;;;23.33;32.80
18569;BME280;14780;48.316;-1.050;2023-02-10T09:34:09;101253.81;;;23.35;32.75
18569;BME280;14780;48.316;-1.050;2023-02-10T09:36:55;101255.06;;;23.38;32.76
18569;BME280;14780;48.316;-1.050;2023-02-10T09:39:41;101255.50;;;23.36;32.70
18569;BME280;14780;48.316;-1.050;2023-02-10T09:45:34;101252.94;;;23.40;32.76
18569;BME280;14780;48.316;-1.050;2023-02-10T09:48:48;101257.78;;;23.45;32.70
18569;BME280;14780;48.316;-1.050;2023-02-10T09:55:01;101257.31;;;23.48;32.72
18569;BME280;14780;48.316;-1.050;2023-02-10T09:57:51;101247.84;;;23.50;32.62
18569;BME280;14780;48.316;-1.050;2023-02-10T10:00:41;101255.44;;;23.48;32.70
18569;BME280;14780;48.316;-1.050;2023-02-10T10:03:34;101252.72;;;23.48;32.63
18569;BME280;14780;48.316;-1.050;2023-02-10T10:06:38;101251.19;;;23.52;32.64
18569;BME280;14780;48.316;-1.050;2023-02-10T10:09:46;101251.81;;;23.54;32.59
18569;BME280;14780;48.316;-1.050;2023-02-10T10:12:35;101255.00;;;23.51;32.64
18569;BME280;14780;48.316;-1.050;2023-02-10T10:15:20;101268.00;;;23.56;32.64
18569;BME280;14780;48.316;-1.050;2023-02-10T10:18:24;101273.25;;;23.57;32.64
18569;BME280;14780;48.316;-1.050;2023-02-10T10:21:26;101271.13;;;23.59;32.55
18569;BME280;14780;48.316;-1.050;2023-02-10T10:30:31;101273.59;;;23.67;32.46
18569;BME280;14780;48.316;-1.050;2023-02-10T10:33:49;101278.88;;;23.69;32.46
18569;BME280;14780;48.316;-1.050;2023-02-10T10:36:37;101276.13;;;23.69;32.42
18569;BME280;14780;48.316;-1.050;2023-02-10T10:42:25;101287.88;;;23.69;32.42
18569;BME280;14780;48.316;-1.050;2023-02-10T10:45:23;101284.34;;;23.69;32.43
18569;BME280;14780;48.316;-1.050;2023-02-10T10:48:14;101284.34;;;23.69;32.42
18569;BME280;14780;48.316;-1.050;2023-02-10T10:51:02;101283.47;;;23.68;32.32
18569;BME280;14780;48.316;-1.050;2023-02-10T10:53:52;101281.81;;;23.67;32.34
18569;BME280;14780;48.316;-1.050;2023-02-10T10:56:46;101281.38;;;23.70;32.41
18569;BME280;14780;48.316;-1.050;2023-02-10T10:59:42;101286.41;;;23.73;32.37
18569;BME280;14780;48.316;-1.050;2023-02-10T11:02:30;101280.53;;;23.70;32.28
18569;BME280;14780;48.316;-1.050;2023-02-10T11:05:14;101299.66;;;23.70;32.30
18569;BME280;14780;48.316;-1.050;2023-02-10T11:08:00;101290.19;;;23.72;32.32
18569;BME280;14780;48.316;-1.050;2023-02-10T11:10:54;101291.88;;;23.73;32.42
18569;BME280;14780;48.316;-1.050;2023-02-10T11:13:47;101291.88;;;23.73;32.41
18569;BME280;14780;48.316;-1.050;2023-02-10T11:16:48;101285.34;;;23.74;32.38
18569;BME280;14780;48.316;-1.050;2023-02-10T11:19:34;101281.38;;;23.70;32.36
18569;BME280;14780;48.316;-1.050;2023-02-10T11:22:20;101290.63;;;23.69;32.36
18569;BME280;14780;48.316;-1.050;2023-02-10T11:25:38;101285.34;;;23.74;32.35
18569;BME280;14780;48.316;-1.050;2023-02-10T11:28:27;101283.88;;;23.78;32.30
18569;BME280;14780;48.316;-1.050;2023-02-10T11:34:15;101262.00;;;23.78;32.33
18569;BME280;14780;48.316;-1.050;2023-02-10T11:40:21;101267.63;;;23.83;32.17
18569;BME280;14780;48.316;-1.050;2023-02-10T11:43:10;101267.00;;;23.81;32.28
18569;BME280;14780;48.316;-1.050;2023-02-10T11:46:02;101270.19;;;23.78;32.27
18569;BME280;14780;48.316;-1.050;2023-02-10T11:49:00;101267.63;;;23.83;32.22
18569;BME280;14780;48.316;-1.050;2023-02-10T11:51:52;101270.81;;;23.80;32.16
18569;BME280;14780;48.316;-1.050;2023-02-10T11:54:39;101264.72;;;23.78;32.12
18569;BME280;14780;48.316;-1.050;2023-02-10T11:57:41;101271.69;;;23.74;32.25
18569;BME280;14780;48.316;-1.050;2023-02-10T12:01:02;101268.75;;;23.69;32.20
18569;BME280;14780;48.316;-1.050;2023-02-10T12:17:10;101257.91;;;23.56;32.17
18569;BME280;14780;48.316;-1.050;2023-02-10T12:23:55;101257.91;;;23.56;32.11
18569;BME280;14780;48.316;-1.050;2023-02-10T12:26:40;101255.78;;;23.58;32.15
18569;BME280;14780;48.316;-1.050;2023-02-10T12:32:54;101253.88;;;23.59;32.10
18569;BME280;14780;48.316;-1.050;2023-02-10T12:36:06;101239.19;;;23.60;32.04
18569;BME280;14780;48.316;-1.050;2023-02-10T12:39:09;101236.00;;;23.63;32.11
18569;BME280;14780;48.316;-1.050;2023-02-10T12:53:53;101230.06;;;23.72;32.00
18569;BME280;14780;48.316;-1.050;2023-02-10T13:00:00;101228.59;;;23.70;32.01
18569;BME280;14780;48.316;-1.050;2023-02-10T13:03:01;101225.00;;;23.69;31.92
18569;BME280;14780;48.316;-1.050;2023-02-10T13:05:54;101219.13;;;23.72;31.87
18569;BME280;14780;48.316;-1.050;2023-02-10T13:08:51;101215.34;;;23.73;31.76
18569;BME280;14780;48.316;-1.050;2023-02-10T13:12:27;101212.38;;;23.75;31.74
18569;BME280;14780;48.316;-1.050;2023-02-10T13:15:01;101210.66;;;23.80;31.82
18569;BME280;14780;48.316;-1.050;2023-02-10T13:17:51;101195.06;;;23.87;31.74
18569;BME280;14780;48.316;-1.050;2023-02-10T13:20:40;101201.75;;;23.91;31.66
18569;BME280;14780;48.316;-1.050;2023-02-10T13:23:37;101185.31;;;23.98;31.71
18569;BME280;14780;48.316;-1.050;2023-02-10T13:29:33;101181.44;;;24.05;31.59
18569;BME280;14780;48.316;-1.050;2023-02-10T13:35:22;101198.25;;;24.09;31.59
18569;BME280;14780;48.316;-1.050;2023-02-10T13:38:13;101200.16;;;24.08;31.54
18569;BME280;14780;48.316;-1.050;2023-02-10T13:41:00;101197.44;;;24.08;31.66
18569;BME280;14780;48.316;-1.050;2023-02-10T13:44:04;101189.22;;;24.08;31.70
18569;BME280;14780;48.316;-1.050;2023-02-10T13:50:02;101189.81;;;24.10;31.65
18569;BME280;14780;48.316;-1.050;2023-02-10T13:52:56;101189.00;;;24.10;31.68
18569;BME280;14780;48.316;-1.050;2023-02-10T13:55:43;101185.41;;;24.09;31.66
18569;BME280;14780;48.316;-1.050;2023-02-10T13:58:31;101182.69;;;24.09;31.69
18569;BME280;14780;48.316;-1.050;2023-02-10T14:01:40;101178.50;;;24.07;31.62
18569;BME280;14780;48.316;-1.050;2023-02-10T14:07:45;101188.84;;;24.05;31.61
18569;BME280;14780;48.316;-1.050;2023-02-10T14:10:31;101187.97;;;24.04;31.66
18569;BME280;14780;48.316;-1.050;2023-02-10T14:13:23;101179.78;;;24.04;31.68
18569;BME280;14780;48.316;-1.050;2023-02-10T14:19:04;101174.09;;;24.06;31.65
18569;BME280;14780;48.316;-1.050;2023-02-10T14:21:51;101176.44;;;24.02;31.69
18569;BME280;14780;48.316;-1.050;2023-02-10T14:24:43;101178.72;;;24.05;31.67
18569;BME280;14780;48.316;-1.050;2023-02-10T14:27:28;101175.19;;;23.98;31.56
18569;BME280;14780;48.316;-1.050;2023-02-10T14:30:24;101171.44;;;23.99;31.63
18569;BME280;14780;48.316;-1.050;2023-02-10T14:33:34;101174.16;;;23.99;31.65
18569;BME280;14780;48.316;-1.050;2023-02-10T14:36:20;101177.94;;;23.98;31.75
18569;BME280;14780;48.316;-1.050;2023-02-10T14:39:05;101176.91;;;23.99;31.65
18569;BME280;14780;48.316;-1.050;2023-02-10T14:42:00;101179.63;;;23.99;31.75
18569;BME280;14780;48.316;-1.050;2023-02-10T14:44:51;101177.72;;;24.00;31.65
18569;BME280;14780;48.316;-1.050;2023-02-10T14:47:38;101175.19;;;23.98;31.78
18569;BME280;14780;48.316;-1.050;2023-02-10T14:50:34;101181.50;;;23.99;31.71
18569;BME280;14780;48.316;-1.050;2023-02-10T14:53:20;101175.19;;;23.98;31.75
18569;BME280;14780;48.316;-1.050;2023-02-10T14:56:04;101174.16;;;23.99;31.76
18569;BME280;14780;48.316;-1.050;2023-02-10T14:58:50;101168.44;;;24.01;31.78
18569;BME280;14780;48.316;-1.050;2023-02-10T15:01:36;101160.50;;;23.99;31.66
18569;BME280;14780;48.316;-1.050;2023-02-10T15:04:22;101162.59;;;23.97;31.71
18569;BME280;14780;48.316;-1.050;2023-02-10T15:07:17;101160.50;;;23.99;31.65
18569;BME280;14780;48.316;-1.050;2023-02-10T15:10:25;101161.31;;;24.00;31.72
18569;BME280;14780;48.316;-1.050;2023-02-10T15:13:11;101155.03;;;23.99;31.72
18569;BME280;14780;48.316;-1.050;2023-02-10T15:15:56;101157.50;;;24.01;31.74
18569;BME280;14780;48.316;-1.050;2023-02-10T15:18:45;101154.16;;;23.99;31.82
18569;BME280;14780;48.316;-1.050;2023-02-10T15:21:34;101144.09;;;23.99;31.75
18569;BME280;14780;48.316;-1.050;2023-02-10T15:27:18;101143.31;;;23.92;32.08
18569;BME280;14780;48.316;-1.050;2023-02-10T15:30:08;101152.13;;;24.12;32.03
18569;BME280;14780;48.316;-1.050;2023-02-10T15:32:58;101152.78;;;24.14;31.83
18569;BME280;14780;48.316;-1.050;2023-02-10T15:41:42;101140.72;;;23.97;31.78
18569;BME280;14780;48.316;-1.050;2023-02-10T15:45:11;101149.59;;;23.93;31.79
18569;BME280;14780;48.316;-1.050;2023-02-10T15:48:08;101149.97;;;23.96;31.98
18569;BME280;14780;48.316;-1.050;2023-02-10T15:50:53;101149.97;;;23.96;32.10
18569;BME280;14780;48.316;-1.050;2023-02-10T15:53:37;101152.50;;;23.98;32.11
18569;BME280;14780;48.316;-1.050;2023-02-10T15:56:24;101157.13;;;23.97;32.18
18569;BME280;14780;48.316;-1.050;2023-02-10T15:59:16;101159.84;;;23.97;32.11
18569;BME280;14780;48.316;-1.050;2023-02-10T16:02:03;101156.72;;;23.94;32.11
18569;BME280;14780;48.316;-1.050;2023-02-10T16:04:48;101155.53;;;23.90;32.17
18569;BME280;14780;48.316;-1.050;2023-02-10T16:07:32;101156.78;;;23.87;32.16
18569;BME280;14780;48.316;-1.050;2023-02-10T16:10:25;101151.53;;;23.86;32.13